sensor_id;sensor_type;location;lat;lon;timestamp;pressure;altitude;pressure_sealevel;temperature;humidity
58785;BME280;44557;51.862;19.378;2024-03-23T00:54:27;98384.11;;;9.27;100.00
58785;BME280;44557;51.862;19.378;2024-03-23T00:56:29;98384.32;;;9.30;100.00
58785;BME280;44557;51.862;19.378;2024-03-23T00:58:31;98380.10;;;9.31;100.00
58785;BME280;44557;51.862;19.378;2024-03-23T01:00:33;98379.84;;;9.33;100.00
58785;BME280;44557;51.862;19.378;2024-03-23T01:02:35;98380.77;;;9.33;100.00
58785;BME280;44557;51.862;19.378;2024-03-23T01:04:37;98377.41;;;9.26;100.00
58785;BME280;44557;51.862;19.378;2024-03-23T01:06:39;98379.95;;;9.28;100.00
58785;BME280;44557;51.862;19.378;2024-03-23T01:08:40;98377.86;;;9.28;100.00
58785;BME280;44557;51.862;19.378;2024-03-23T01:10:42;98376.70;;;9.29;100.00
58785;BME280;44557;51.862;19.378;2024-03-23T01:12:44;98373.23;;;9.25;100.00
58785;BME280;44557;51.862;19.378;2024-03-23T01:14:46;98368.16;;;9.20;100.00
58785;BME280;44557;51.862;19.378;2024-03-23T01:16:47;98368.66;;;9.20;100.00
58785;BME280;44557;51.862;19.378;2024-03-23T01:18:49;98369.81;;;9.15;100.00
58785;BME280;44557;51.862;19.378;2024-03-23T01:20:50;98371.06;;;9.15;100.00
58785;BME280;44557;51.862;19.378;2024-03-23T01:22:52;98366.12;;;9.00;100.00
58785;BME280;44557;51.862;19.378;2024-03-23T01:24:54;98358.11;;;9.11;100.00
58785;BME280;44557;51.862;19.378;2024-03-23T01:26:55;98357.86;;;9.11;100.00
58785;BME280;44557;51.862;19.378;2024-03-23T01:28:57;98357.55;;;9.11;100.00
58785;BME280;44557;51.862;19.378;2024-03-23T01:30:58;98356.05;;;9.11;100.00
58785;BME280;44557;51.862;19.378;2024-03-23T01:33:01;98351.73;;;9.11;100.00
58785;BME280;44557;51.862;19.378;2024-03-23T01:35:02;98349.84;;;9.02;100.00
58785;BME280;44557;51.862;19.378;2024-03-23T01:37:05;98346.02;;;9.04;100.00
58785;BME280;44557;51.862;19.378;2024-03-23T01:39:07;98344.69;;;9.08;100.00
58785;BME280;44557;51.862;19.378;2024-03-23T01:41:11;98344.15;;;9.09;100.00
58785;BME280;44557;51.862;19.378;2024-03-23T01:43:13;98345.14;;;9.14;100.00
58785;BME280;44557;51.862;19.378;2024-03-23T01:45:14;98341.19;;;9.17;100.00
58785;BME280;44557;51.862;19.378;2024-03-23T01:47:16;98329.71;;;9.01;100.00
58785;BME280;44557;51.862;19.378;2024-03-23T01:49:19;98325.43;;;9.03;100.00
58785;BME280;44557;51.862;19.378;2024-03-23T01:51:22;98320.52;;;9.12;100.00
58785;BME280;44557;51.862;19.378;2024-03-23T01:53:25;98319.55;;;9.07;100.00
58785;BME280;44557;51.862;19.378;2024-03-23T01:55:27;98322.16;;;9.04;100.00
58785;BME280;44557;51.862;19.378;2024-03-23T01:57:30;98323.63;;;9.02;100.00
58785;BME280;44557;51.862;19.378;2024-03-23T01:59:32;98323.59;;;9.04;100.00
58785;BME280;44557;51.862;19.378;2024-03-23T02:01:35;98317.23;;;9.13;100.00
58785;BME280;44557;51.862;19.378;2024-03-23T02:03:40;98315.15;;;9.02;100.00
58785;BME280;44557;51.862;19.378;2024-03-23T02:05:41;98312.95;;;9.10;100.00
58785;BME280;44557;51.862;19.378;2024-03-23T02:07:43;98311.88;;;9.08;100.00
58785;BME280;44557;51.862;19.378;2024-03-23T02:09:45;98307.59;;;9.09;100.00
58785;BME280;44557;51.862;19.378;2024-03-23T02:11:47;98303.77;;;9.06;100.00
58785;BME280;44557;51.862;19.378;2024-03-23T02:13:49;98300.03;;;9.00;100.00
58785;BME280;44557;51.862;19.378;2024-03-23T02:15:51;98302.08;;;9.01;100.00
58785;BME280;44557;51.862;19.378;2024-03-23T02:17:52;98300.98;;;9.05;100.00
58785;BME280;44557;51.862;19.378;2024-03-23T02:19:54;98303.14;;;9.07;100.00
58785;BME280;44557;51.862;19.378;2024-03-23T02:21:56;98301.86;;;9.13;100.00
58785;BME280;44557;51.862;19.378;2024-03-23T02:23:59;98304.92;;;9.01;100.00
58785;BME280;44557;51.862;19.378;2024-03-23T02:26:01;98305.61;;;9.04;100.00
58785;BME280;44557;51.862;19.378;2024-03-23T02:28:03;98304.73;;;9.08;100.00
58785;BME280;44557;51.862;19.378;2024-03-23T02:30:06;98300.79;;;9.03;100.00
58785;BME280;44557;51.862;19.378;2024-03-23T02:32:08;98297.08;;;9.06;100.00
58785;BME280;44557;51.862;19.378;2024-03-23T02:34:13;98299.66;;;9.09;100.00
58785;BME280;44557;51.862;19.378;2024-03-23T02:36:14;98292.20;;;9.17;100.00
58785;BME280;44557;51.862;19.378;2024-03-23T02:38:17;98292.10;;;9.16;100.00
58785;BME280;44557;51.862;19.378;2024-03-23T02:40:20;98290.25;;;9.10;100.00
58785;BME280;44557;51.862;19.378;2024-03-23T02:42:22;98286.04;;;9.07;100.00
58785;BME280;44557;51.862;19.378;2024-03-23T02:44:24;98286.02;;;9.01;100.00
58785;BME280;44557;51.862;19.378;2024-03-23T02:46:26;98281.70;;;8.98;100.00
58785;BME280;44557;51.862;19.378;2024-03-23T02:48:28;98277.02;;;9.00;100.00
58785;BME280;44557;51.862;19.378;2024-03-23T02:50:29;98279.46;;;9.08;100.00
58785;BME280;44557;51.862;19.378;2024-03-23T02:52:31;98274.05;;;9.04;100.00
58785;BME280;44557;51.862;19.378;2024-03-23T02:54:33;98270.27;;;8.94;100.00
58785;BME280;44557;51.862;19.378;2024-03-23T02:56:34;98270.21;;;9.01;100.00
58785;BME280;44557;51.862;19.378;2024-03-23T02:58:36;98267.66;;;9.02;100.00
58785;BME280;44557;51.862;19.378;2024-03-23T03:00:38;98261.99;;;8.98;100.00
58785;BME280;44557;51.862;19.378;2024-03-23T03:02:41;98264.02;;;9.01;100.00
58785;BME280;44557;51.862;19.378;2024-03-23T03:04:42;98259.55;;;9.09;100.00
58785;BME280;44557;51.862;19.378;2024-03-23T03:06:47;98258.82;;;9.19;100.00
58785;BME280;44557;51.862;19.378;2024-03-23T03:08:49;98255.56;;;9.14;100.00
58785;BME280;44557;51.862;19.378;2024-03-23T03:10:51;98256.36;;;9.19;100.00
58785;BME280;44557;51.862;19.378;2024-03-23T03:12:53;98253.35;;;9.17;100.00
58785;BME280;44557;51.862;19.378;2024-03-23T03:14:54;98251.31;;;9.18;100.00
58785;BME280;44557;51.862;19.378;2024-03-23T03:16:56;98250.97;;;9.20;100.00
58785;BME280;44557;51.862;19.378;2024-03-23T03:18:58;98248.48;;;9.16;100.00
58785;BME280;44557;51.862;19.378;2024-03-23T03:21:00;98243.50;;;9.07;100.00
58785;BME280;44557;51.862;19.378;2024-03-23T03:23:01;98242.08;;;9.11;100.00
58785;BME280;44557;51.862;19.378;2024-03-23T03:25:03;98243.45;;;9.16;100.00
58785;BME280;44557;51.862;19.378;2024-03-23T03:27:05;98240.90;;;9.15;100.00
58785;BME280;44557;51.862;19.378;2024-03-23T03:29:09;98240.84;;;9.16;100.00
58785;BME280;44557;51.862;19.378;2024-03-23T03:31:11;98239.79;;;9.18;100.00
58785;BME280;44557;51.862;19.378;2024-03-23T03:33:13;98234.81;;;9.00;100.00
58785;BME280;44557;51.862;19.378;2024-03-23T03:35:15;98236.89;;;9.14;100.00
58785;BME280;44557;51.862;19.378;2024-03-23T03:37:16;98237.46;;;9.16;100.00
58785;BME280;44557;51.862;19.378;2024-03-23T03:39:18;98231.39;;;9.14;100.00
58785;BME280;44557;51.862;19.378;2024-03-23T03:41:20;98219.17;;;9.15;100.00
58785;BME280;44557;51.862;19.378;2024-03-23T03:43:22;98212.59;;;9.07;100.00
58785;BME280;44557;51.862;19.378;2024-03-23T03:45:23;98213.36;;;9.12;100.00
58785;BME280;44557;51.862;19.378;2024-03-23T03:47:25;98206.91;;;9.06;100.00
58785;BME280;44557;51.862;19.378;2024-03-23T03:49:27;98203.33;;;9.00;100.00
58785;BME280;44557;51.862;19.378;2024-03-23T03:51:29;98201.49;;;9.02;100.00
58785;BME280;44557;51.862;19.378;2024-03-23T03:53:30;98204.85;;;9.05;100.00
58785;BME280;44557;51.862;19.378;2024-03-23T03:55:32;98208.05;;;9.00;100.00
58785;BME280;44557;51.862;19.378;2024-03-23T03:57:34;98208.80;;;9.02;100.00
58785;BME280;44557;51.862;19.378;2024-03-23T03:59:35;98206.54;;;9.07;100.00
58785;BME280;44557;51.862;19.378;2024-03-23T04:01:37;98207.02;;;9.08;100.00
58785;BME280;44557;51.862;19.378;2024-03-23T04:03:39;98206.98;;;8.97;100.00
58785;BME280;44557;51.862;19.378;2024-03-23T04:05:54;98205.92;;;9.04;100.00
58785;BME280;44557;51.862;19.378;2024-03-23T04:07:57;98208.73;;;9.11;100.00
58785;BME280;44557;51.862;19.378;2024-03-23T04:09:59;98204.26;;;9.03;100.00
58785;BME280;44557;51.862;19.378;2024-03-23T04:12:00;98200.70;;;9.10;100.00
58785;BME280;44557;51.862;19.378;2024-03-23T04:14:02;98192.89;;;9.12;100.00
58785;BME280;44557;51.862;19.378;2024-03-23T04:16:04;98195.77;;;9.06;100.00
58785;BME280;44557;51.862;19.378;2024-03-23T04:18:06;98196.23;;;9.10;100.00
58785;BME280;44557;51.862;19.378;2024-03-23T04:20:09;98194.00;;;9.12;100.00
58785;BME280;44557;51.862;19.378;2024-03-23T04:22:12;98193.98;;;9.11;100.00
58785;BME280;44557;51.862;19.378;2024-03-23T04:24:14;98192.38;;;9.10;100.00
58785;BME280;44557;51.862;19.378;2024-03-23T04:26:16;98185.50;;;9.11;100.00
58785;BME280;44557;51.862;19.378;2024-03-23T04:28:19;98185.20;;;9.12;100.00
58785;BME280;44557;51.862;19.378;2024-03-23T04:30:21;98187.98;;;9.09;100.00
58785;BME280;44557;51.862;19.378;2024-03-23T04:32:23;98180.89;;;8.96;100.00
58785;BME280;44557;51.862;19.378;2024-03-23T04:34:24;98174.54;;;9.00;100.00
58785;BME280;44557;51.862;19.378;2024-03-23T04:36:28;98170.39;;;9.09;100.00
58785;BME280;44557;51.862;19.378;2024-03-23T04:38:30;98170.38;;;9.04;100.00
58785;BME280;44557;51.862;19.378;2024-03-23T04:40:32;98168.80;;;9.04;100.00
58785;BME280;44557;51.862;19.378;2024-03-23T04:42:34;98164.92;;;8.98;100.00
58785;BME280;44557;51.862;19.378;2024-03-23T04:44:36;98160.58;;;9.05;100.00
58785;BME280;44557;51.862;19.378;2024-03-23T04:46:38;98156.91;;;9.01;100.00
58785;BME280;44557;51.862;19.378;2024-03-23T04:48:40;98154.05;;;8.95;100.00
58785;BME280;44557;51.862;19.378;2024-03-23T04:50:42;98150.48;;;8.92;100.00
58785;BME280;44557;51.862;19.378;2024-03-23T04:52:44;98153.64;;;8.81;100.00
58785;BME280;44557;51.862;19.378;2024-03-23T04:54:46;98149.14;;;8.80;100.00
58785;BME280;44557;51.862;19.378;2024-03-23T04:56:48;98151.96;;;8.72;100.00
58785;BME280;44557;51.862;19.378;2024-03-23T04:58:50;98150.01;;;8.85;100.00
58785;BME280;44557;51.862;19.378;2024-03-23T05:00:56;98148.72;;;8.87;100.00
58785;BME280;44557;51.862;19.378;2024-03-23T05:02:58;98143.06;;;8.91;100.00
58785;BME280;44557;51.862;19.378;2024-03-23T05:05:00;98139.10;;;8.89;100.00
58785;BME280;44557;51.862;19.378;2024-03-23T05:07:03;98136.95;;;8.95;100.00
58785;BME280;44557;51.862;19.378;2024-03-23T05:09:05;98132.88;;;8.87;100.00
58785;BME280;44557;51.862;19.378;2024-03-23T05:11:09;98132.33;;;8.79;100.00
58785;BME280;44557;51.862;19.378;2024-03-23T05:13:12;98135.38;;;8.74;100.00
58785;BME280;44557;51.862;19.378;2024-03-23T05:15:14;98127.84;;;8.78;100.00
58785;BME280;44557;51.862;19.378;2024-03-23T05:17:15;98132.67;;;8.85;100.00
58785;BME280;44557;51.862;19.378;2024-03-23T05:19:17;98132.38;;;8.81;100.00
58785;BME280;44557;51.862;19.378;2024-03-23T05:21:19;98130.09;;;8.85;100.00
58785;BME280;44557;51.862;19.378;2024-03-23T05:23:21;98131.67;;;8.81;100.00
58785;BME280;44557;51.862;19.378;2024-03-23T05:25:23;98133.98;;;8.79;100.00
58785;BME280;44557;51.862;19.378;2024-03-23T05:27:26;98128.67;;;8.89;100.00
58785;BME280;44557;51.862;19.378;2024-03-23T05:29:28;98122.34;;;8.86;100.00
58785;BME280;44557;51.862;19.378;2024-03-23T05:31:31;98127.23;;;8.83;100.00
58785;BME280;44557;51.862;19.378;2024-03-23T05:33:33;98122.80;;;8.90;100.00
58785;BME280;44557;51.862;19.378;2024-03-23T05:35:34;98124.19;;;8.93;100.00
58785;BME280;44557;51.862;19.378;2024-03-23T05:37:36;98121.24;;;8.91;100.00
58785;BME280;44557;51.862;19.378;2024-03-23T05:39:38;98115.99;;;8.95;100.00
58785;BME280;44557;51.862;19.378;2024-03-23T05:41:40;98114.18;;;9.00;100.00
58785;BME280;44557;51.862;19.378;2024-03-23T05:43:42;98114.85;;;8.93;100.00
58785;BME280;44557;51.862;19.378;2024-03-23T05:45:44;98120.14;;;8.91;100.00
58785;BME280;44557;51.862;19.378;2024-03-23T05:47:46;98109.79;;;8.86;100.00
58785;BME280;44557;51.862;19.378;2024-03-23T05:49:47;98103.79;;;8.93;100.00
58785;BME280;44557;51.862;19.378;2024-03-23T05:51:49;98101.10;;;8.87;100.00
58785;BME280;44557;51.862;19.378;2024-03-23T05:53:51;98098.80;;;8.85;100.00
58785;BME280;44557;51.862;19.378;2024-03-23T05:56:00;98100.23;;;8.82;100.00
58785;BME280;44557;51.862;19.378;2024-03-23T05:58:05;98093.43;;;8.88;100.00
58785;BME280;44557;51.862;19.378;2024-03-23T06:00:07;98088.49;;;8.84;100.00
58785;BME280;44557;51.862;19.378;2024-03-23T06:02:17;98090.48;;;8.81;100.00
58785;BME280;44557;51.862;19.378;2024-03-23T06:04:19;98094.05;;;8.83;100.00
58785;BME280;44557;51.862;19.378;2024-03-23T06:06:20;98096.53;;;8.91;100.00
58785;BME280;44557;51.862;19.378;2024-03-23T06:08:23;98098.34;;;9.00;100.00
58785;BME280;44557;51.862;19.378;2024-03-23T06:10:25;98098.50;;;9.09;100.00
58785;BME280;44557;51.862;19.378;2024-03-23T06:12:27;98096.02;;;9.06;100.00
58785;BME280;44557;51.862;19.378;2024-03-23T06:14:29;98092.85;;;9.05;100.00
58785;BME280;44557;51.862;19.378;2024-03-23T06:16:31;98093.29;;;9.08;100.00
58785;BME280;44557;51.862;19.378;2024-03-23T06:18:33;98091.33;;;9.08;100.00
58785;BME280;44557;51.862;19.378;2024-03-23T06:20:34;98090.92;;;9.12;100.00
58785;BME280;44557;51.862;19.378;2024-03-23T06:22:37;98083.77;;;9.06;100.00
58785;BME280;44557;51.862;19.378;2024-03-23T06:24:38;98079.52;;;9.10;100.00
58785;BME280;44557;51.862;19.378;2024-03-23T06:26:40;98074.27;;;9.10;100.00
58785;BME280;44557;51.862;19.378;2024-03-23T06:28:42;98070.64;;;9.05;100.00
58785;BME280;44557;51.862;19.378;2024-03-23T06:30:44;98068.40;;;9.11;100.00
58785;BME280;44557;51.862;19.378;2024-03-23T06:32:45;98071.73;;;9.13;100.00
58785;BME280;44557;51.862;19.378;2024-03-23T06:34:47;98065.20;;;9.17;100.00
58785;BME280;44557;51.862;19.378;2024-03-23T06:36:49;98057.14;;;9.19;100.00
58785;BME280;44557;51.862;19.378;2024-03-23T06:38:51;98056.81;;;9.09;100.00
58785;BME280;44557;51.862;19.378;2024-03-23T06:40:54;98053.52;;;9.09;100.00
58785;BME280;44557;51.862;19.378;2024-03-23T06:42:55;98052.71;;;9.17;100.00
58785;BME280;44557;51.862;19.378;2024-03-23T06:44:57;98047.00;;;9.19;100.00
58785;BME280;44557;51.862;19.378;2024-03-23T06:46:59;98041.11;;;9.24;100.00
58785;BME280;44557;51.862;19.378;2024-03-23T06:49:01;98039.79;;;9.24;100.00
58785;BME280;44557;51.862;19.378;2024-03-23T06:51:04;98037.33;;;9.22;100.00
58785;BME280;44557;51.862;19.378;2024-03-23T06:53:07;98034.64;;;9.32;100.00
58785;BME280;44557;51.862;19.378;2024-03-23T06:55:09;98032.98;;;9.37;100.00
58785;BME280;44557;51.862;19.378;2024-03-23T06:57:12;98032.39;;;9.49;100.00
58785;BME280;44557;51.862;19.378;2024-03-23T06:59:13;98029.23;;;9.53;100.00
58785;BME280;44557;51.862;19.378;2024-03-23T07:01:15;98026.52;;;9.62;100.00
58785;BME280;44557;51.862;19.378;2024-03-23T07:03:17;98027.13;;;9.79;100.00
58785;BME280;44557;51.862;19.378;2024-03-23T07:05:19;98032.37;;;9.83;100.00
58785;BME280;44557;51.862;19.378;2024-03-23T07:07:22;98027.20;;;9.98;100.00
58785;BME280;44557;51.862;19.378;2024-03-23T07:09:24;98029.46;;;10.02;100.00
58785;BME280;44557;51.862;19.378;2024-03-23T07:11:27;98030.09;;;10.02;100.00
58785;BME280;44557;51.862;19.378;2024-03-23T07:13:29;98027.43;;;9.97;100.00
58785;BME280;44557;51.862;19.378;2024-03-23T07:15:31;98022.54;;;10.14;100.00
58785;BME280;44557;51.862;19.378;2024-03-23T07:17:33;98022.30;;;10.48;100.00
58785;BME280;44557;51.862;19.378;2024-03-23T07:19:36;98019.90;;;11.17;100.00
58785;BME280;44557;51.862;19.378;2024-03-23T07:21:38;98022.77;;;11.71;100.00
58785;BME280;44557;51.862;19.378;2024-03-23T07:23:42;98022.83;;;11.79;100.00
58785;BME280;44557;51.862;19.378;2024-03-23T07:25:56;98017.65;;;11.70;100.00
58785;BME280;44557;51.862;19.378;2024-03-23T07:27:58;98011.73;;;11.67;100.00
58785;BME280;44557;51.862;19.378;2024-03-23T07:30:01;98011.08;;;11.92;100.00
58785;BME280;44557;51.862;19.378;2024-03-23T07:32:03;98014.27;;;12.26;100.00
58785;BME280;44557;51.862;19.378;2024-03-23T07:34:05;98005.27;;;12.54;99.66
58785;BME280;44557;51.862;19.378;2024-03-23T07:36:07;98004.02;;;12.68;98.81
58785;BME280;44557;51.862;19.378;2024-03-23T07:38:08;98007.47;;;12.61;98.80
58785;BME280;44557;51.862;19.378;2024-03-23T07:40:10;98006.18;;;12.12;99.99
58785;BME280;44557;51.862;19.378;2024-03-23T07:42:14;98008.06;;;11.75;100.00
58785;BME280;44557;51.862;19.378;2024-03-23T07:44:16;98003.18;;;11.49;100.00
58785;BME280;44557;51.862;19.378;2024-03-23T07:46:18;98001.07;;;11.51;100.00
58785;BME280;44557;51.862;19.378;2024-03-23T07:48:21;97995.77;;;11.50;100.00
58785;BME280;44557;51.862;19.378;2024-03-23T07:50:26;97996.29;;;11.32;100.00
58785;BME280;44557;51.862;19.378;2024-03-23T07:52:29;97998.15;;;11.15;100.00
58785;BME280;44557;51.862;19.378;2024-03-23T07:54:31;97995.00;;;11.15;100.00
58785;BME280;44557;51.862;19.378;2024-03-23T07:56:33;97989.16;;;11.13;100.00
58785;BME280;44557;51.862;19.378;2024-03-23T07:58:35;97982.23;;;11.12;100.00
58785;BME280;44557;51.862;19.378;2024-03-23T08:00:38;97976.35;;;10.94;100.00
58785;BME280;44557;51.862;19.378;2024-03-23T08:02:39;97973.17;;;10.81;100.00
58785;BME280;44557;51.862;19.378;2024-03-23T08:04:42;97966.27;;;10.83;100.00
58785;BME280;44557;51.862;19.378;2024-03-23T08:06:43;97959.30;;;10.77;100.00
58785;BME280;44557;51.862;19.378;2024-03-23T08:08:47;97951.61;;;10.71;100.00
58785;BME280;44557;51.862;19.378;2024-03-23T08:10:49;97945.49;;;10.73;100.00
58785;BME280;44557;51.862;19.378;2024-03-23T08:12:52;97941.21;;;10.80;100.00
58785;BME280;44557;51.862;19.378;2024-03-23T08:14:53;97936.13;;;11.68;100.00
58785;BME280;44557;51.862;19.378;2024-03-23T08:16:55;97933.98;;;12.51;99.60
58785;BME280;44557;51.862;19.378;2024-03-23T08:18:57;97928.80;;;12.73;97.16
58785;BME280;44557;51.862;19.378;2024-03-23T08:21:00;97927.65;;;13.13;95.29
58785;BME280;44557;51.862;19.378;2024-03-23T08:23:04;97926.16;;;13.45;92.75
58785;BME280;44557;51.862;19.378;2024-03-23T08:25:06;97921.03;;;13.12;93.61
58785;BME280;44557;51.862;19.378;2024-03-23T08:27:08;97917.58;;;13.07;94.44
58785;BME280;44557;51.862;19.378;2024-03-23T08:29:09;97917.76;;;13.25;93.97
58785;BME280;44557;51.862;19.378;2024-03-23T08:31:12;97913.41;;;13.54;91.76
58785;BME280;44557;51.862;19.378;2024-03-23T08:33:14;97909.84;;;14.06;88.41
58785;BME280;44557;51.862;19.378;2024-03-23T08:35:15;97903.41;;;14.22;86.29
58785;BME280;44557;51.862;19.378;2024-03-23T08:37:18;97895.81;;;14.38;83.29
58785;BME280;44557;51.862;19.378;2024-03-23T08:39:20;97893.60;;;14.93;82.22
58785;BME280;44557;51.862;19.378;2024-03-23T08:41:22;97886.29;;;15.03;80.66
58785;BME280;44557;51.862;19.378;2024-03-23T08:43:24;97885.52;;;15.39;79.61
58785;BME280;44557;51.862;19.378;2024-03-23T08:45:26;97881.67;;;15.49;79.01
58785;BME280;44557;51.862;19.378;2024-03-23T08:47:27;97878.71;;;15.38;78.50
58785;BME280;44557;51.862;19.378;2024-03-23T08:49:29;97867.96;;;15.13;79.56
58785;BME280;44557;51.862;19.378;2024-03-23T08:51:32;97865.41;;;15.29;78.97
58785;BME280;44557;51.862;19.378;2024-03-23T08:53:35;97857.17;;;15.34;79.15
58785;BME280;44557;51.862;19.378;2024-03-23T08:55:36;97848.97;;;15.62;78.28
58785;BME280;44557;51.862;19.378;2024-03-23T08:57:38;97848.55;;;15.61;77.20
58785;BME280;44557;51.862;19.378;2024-03-23T08:59:42;97847.89;;;15.62;77.19
58785;BME280;44557;51.862;19.378;2024-03-23T09:01:44;97841.30;;;15.58;77.64
58785;BME280;44557;51.862;19.378;2024-03-23T09:03:46;97838.92;;;15.86;77.14
58785;BME280;44557;51.862;19.378;2024-03-23T09:05:49;97835.86;;;16.49;74.61
58785;BME280;44557;51.862;19.378;2024-03-23T09:07:51;97836.88;;;15.79;74.32
58785;BME280;44557;51.862;19.378;2024-03-23T09:09:53;97842.06;;;15.66;75.53
58785;BME280;44557;51.862;19.378;2024-03-23T09:11:54;97832.49;;;15.65;74.79
58785;BME280;44557;51.862;19.378;2024-03-23T09:13:56;97827.24;;;16.08;74.06
58785;BME280;44557;51.862;19.378;2024-03-23T09:15:58;97820.51;;;16.19;73.21
58785;BME280;44557;51.862;19.378;2024-03-23T09:17:59;97819.84;;;16.15;71.86
58785;BME280;44557;51.862;19.378;2024-03-23T09:20:02;97815.91;;;16.28;72.41
58785;BME280;44557;51.862;19.378;2024-03-23T09:22:03;97810.73;;;16.15;72.50
58785;BME280;44557;51.862;19.378;2024-03-23T09:24:05;97805.83;;;16.09;72.30
58785;BME280;44557;51.862;19.378;2024-03-23T09:26:07;97803.20;;;16.33;71.25
58785;BME280;44557;51.862;19.378;2024-03-23T09:28:09;97801.98;;;16.20;71.89
58785;BME280;44557;51.862;19.378;2024-03-23T09:30:11;97792.69;;;16.50;71.29
58785;BME280;44557;51.862;19.378;2024-03-23T09:32:13;97781.33;;;16.73;69.84
58785;BME280;44557;51.862;19.378;2024-03-23T09:34:16;97774.38;;;16.39;69.35
58785;BME280;44557;51.862;19.378;2024-03-23T09:36:19;97771.05;;;16.61;69.68
58785;BME280;44557;51.862;19.378;2024-03-23T09:38:23;97764.44;;;16.72;68.43
58785;BME280;44557;51.862;19.378;2024-03-23T09:40:25;97761.07;;;16.81;68.82
58785;BME280;44557;51.862;19.378;2024-03-23T09:42:27;97749.70;;;16.69;68.81
58785;BME280;44557;51.862;19.378;2024-03-23T09:44:29;97754.43;;;16.53;68.61
58785;BME280;44557;51.862;19.378;2024-03-23T09:46:31;97750.57;;;16.47;68.91
58785;BME280;44557;51.862;19.378;2024-03-23T09:48:36;97753.84;;;16.69;69.47
58785;BME280;44557;51.862;19.378;2024-03-23T09:50:39;97756.33;;;16.34;69.34
58785;BME280;44557;51.862;19.378;2024-03-23T09:52:40;97753.19;;;16.05;69.94
58785;BME280;44557;51.862;19.378;2024-03-23T09:54:45;97753.36;;;16.13;69.85
58785;BME280;44557;51.862;19.378;2024-03-23T09:56:47;97748.55;;;16.53;68.35
58785;BME280;44557;51.862;19.378;2024-03-23T09:58:48;97746.33;;;17.08;67.06
58785;BME280;44557;51.862;19.378;2024-03-23T10:00:50;97740.73;;;17.16;66.32
58785;BME280;44557;51.862;19.378;2024-03-23T10:02:55;97739.52;;;16.78;67.25
58785;BME280;44557;51.862;19.378;2024-03-23T10:04:57;97732.86;;;16.38;68.99
58785;BME280;44557;51.862;19.378;2024-03-23T10:07:10;97734.79;;;15.99;70.40
58785;BME280;44557;51.862;19.378;2024-03-23T10:09:18;97735.66;;;15.58;70.84
58785;BME280;44557;51.862;19.378;2024-03-23T10:11:20;97726.66;;;15.92;70.20
58785;BME280;44557;51.862;19.378;2024-03-23T10:13:26;97727.33;;;15.79;70.24
58785;BME280;44557;51.862;19.378;2024-03-23T10:15:28;97724.94;;;16.33;69.27
58785;BME280;44557;51.862;19.378;2024-03-23T10:17:30;97724.73;;;16.70;68.87
58785;BME280;44557;51.862;19.378;2024-03-23T10:19:32;97724.10;;;16.35;68.22
58785;BME280;44557;51.862;19.378;2024-03-23T10:22:37;97718.05;;;15.94;68.12
58785;BME280;44557;51.862;19.378;2024-03-23T10:24:39;97718.73;;;16.14;68.56
58785;BME280;44557;51.862;19.378;2024-03-23T10:26:41;97718.75;;;16.55;66.91
58785;BME280;44557;51.862;19.378;2024-03-23T10:28:55;97716.84;;;17.33;64.83
58785;BME280;44557;51.862;19.378;2024-03-23T10:31:12;97708.89;;;17.58;63.29
58785;BME280;44557;51.862;19.378;2024-03-23T10:33:14;97703.08;;;17.55;62.12
58785;BME280;44557;51.862;19.378;2024-03-23T10:35:19;97696.98;;;17.50;61.81
58785;BME280;44557;51.862;19.378;2024-03-23T10:37:23;97697.11;;;17.12;62.82
58785;BME280;44557;51.862;19.378;2024-03-23T10:39:25;97687.30;;;17.60;62.29
58785;BME280;44557;51.862;19.378;2024-03-23T10:41:28;97685.02;;;17.34;64.22
58785;BME280;44557;51.862;19.378;2024-03-23T10:43:33;97677.70;;;17.04;64.63
58785;BME280;44557;51.862;19.378;2024-03-23T10:45:36;97678.61;;;16.61;65.55
58785;BME280;44557;51.862;19.378;2024-03-23T10:47:38;97667.27;;;16.28;65.04
58785;BME280;44557;51.862;19.378;2024-03-23T10:49:39;97655.14;;;15.92;66.04
58785;BME280;44557;51.862;19.378;2024-03-23T10:51:41;97654.41;;;15.71;67.29
58785;BME280;44557;51.862;19.378;2024-03-23T10:53:45;97656.48;;;15.79;67.63
58785;BME280;44557;51.862;19.378;2024-03-23T10:55:49;97651.65;;;15.85;67.76
58785;BME280;44557;51.862;19.378;2024-03-23T10:57:54;97649.79;;;15.90;66.41
58785;BME280;44557;51.862;19.378;2024-03-23T10:59:56;97642.95;;;15.82;66.75
58785;BME280;44557;51.862;19.378;2024-03-23T11:02:00;97642.84;;;15.89;66.40
58785;BME280;44557;51.862;19.378;2024-03-23T11:04:04;97642.34;;;15.90;66.46
58785;BME280;44557;51.862;19.378;2024-03-23T11:06:06;97642.77;;;15.83;66.98
58785;BME280;44557;51.862;19.378;2024-03-23T11:08:09;97642.41;;;15.81;68.26
58785;BME280;44557;51.862;19.378;2024-03-23T11:10:25;97636.87;;;15.67;67.70
58785;BME280;44557;51.862;19.378;2024-03-23T11:12:31;97634.09;;;15.76;68.03
58785;BME280;44557;51.862;19.378;2024-03-23T11:14:35;97627.27;;;15.72;69.36
58785;BME280;44557;51.862;19.378;2024-03-23T11:16:36;97623.34;;;15.60;68.80
58785;BME280;44557;51.862;19.378;2024-03-23T11:18:44;97621.48;;;15.52;68.77
58785;BME280;44557;51.862;19.378;2024-03-23T11:20:45;97615.32;;;15.40;69.25
58785;BME280;44557;51.862;19.378;2024-03-23T11:22:47;97613.14;;;15.42;69.33
58785;BME280;44557;51.862;19.378;2024-03-23T11:24:52;97612.64;;;15.29;69.58
58785;BME280;44557;51.862;19.378;2024-03-23T11:26:54;97602.07;;;15.19;69.81
58785;BME280;44557;51.862;19.378;2024-03-23T11:29:12;97590.85;;;15.12;69.99
58785;BME280;44557;51.862;19.378;2024-03-23T11:31:14;97588.48;;;15.12;69.46
58785;BME280;44557;51.862;19.378;2024-03-23T11:33:16;97583.86;;;15.07;70.10
58785;BME280;44557;51.862;19.378;2024-03-23T11:35:32;97581.73;;;15.12;70.10